Elon, NC

02:04 EST le 01 février 2015 (GMT -0500)
Burlington-Alamance Regional | Change Station
CLOSE
Current Station
Aéroport
Location: Burlington,
Altitude: 617 ft
Stations météo à proximité

Alt. 617 ft 36.05 °N, 79.47 °W | Updated 10 minutes ago

Partiellement nuageux
Partiellement nuageux
32 ° F
Paraît 32 ° F
N
0
Vent Variable Vent de Nord

Aujourd'hui
Haut(e) -- | Bas -- ° F
--% Risque de précip.
Hier
Haut(e) -- | Bas -- ° F
Precip. -- pouce
7:19 AM 5:44 PM
Lune gibbeuse croissante, 93% visible
Pression 30.26 pouce
Visibilité 10.0 Miles terrestres
Nuages Ciel dégagé
Point de rosée 19 ° F
Humidité 59%
Précipitations 0.00 pouce
Profondeur de la couche neigeuse Non disponible.
UV 0 sur 12
Pollen 3.00 sur 12
Qualité de l'air Non disponible.
Flu Activity Non disponible.
METAR KBUY 010654Z AUTO 00000KT 10SM CLR 00/M07 A3025 RMK AO2 SLP246 T00001072

More Conditions Fewer Conditions

Pression 30.26 pouce
Visibilité 10.0 Miles terrestres
Nuages Ciel dégagé
Point de rosée 19 ° F
Humidité 59%
Précipitations 0.00 pouce
Profondeur de la couche neigeuse Non disponible.
UV 0 sur 12
Pollen 3.00 sur 12
Qualité de l'air Non disponible.
Flu Activity Non disponible.
METAR KBUY 010654Z AUTO 00000KT 10SM CLR 00/M07 A3025 RMK AO2 SLP246 T00001072

More Conditions Fewer Conditions

10-Day Weather Forecast

Almanac

Astronomie

Feb. 01, 2015 Lever Coucher
Temps réel
Crépuscule civil
Crépuscule nautique
Crépuscule astronomique
Lune
Durée de lumière visible
Longueur du jour
Tomorrow will be .
, % of the Moon is Illuminated

Extrêmes aujourd'hui

State Highs State Lows

Community

WunderPhotos

Upload Photos

1,792,325 Photos téléchargées !

WunderBlogs® & News

Nearby

Qualité de l'air

  Qualité de l'air Indice de la qualité de l'air Polluant
Not available.

Épaisseur de neige

Station Depth Altitude

Activité sismique

Ville Distance Mag. Time & Date
Minimum magnitude displayed is 2.5.

Températures des eaux côtières

Lieu Température

Stations météo à proximité